createdAt,value
2019-04-13T00:00:06.492Z,38.40
2019-04-13T00:02:40.566Z,38.10
2019-04-13T00:05:26.394Z,38.50
2019-04-13T00:07:56.232Z,38.70
2019-04-13T00:10:38.014Z,38.80
2019-04-13T00:13:05.706Z,38.50
2019-04-13T00:15:33.357Z,38.60
2019-04-13T00:18:01.008Z,38.60
2019-04-13T00:20:28.678Z,38.50
2019-04-13T00:22:56.320Z,38.80
2019-04-13T00:25:23.985Z,38.60
2019-04-13T00:27:51.780Z,38.10
2019-04-13T00:30:19.466Z,37.80
2019-04-13T00:32:47.176Z,38.00
2019-04-13T00:35:14.837Z,38.60
2019-04-13T00:37:42.626Z,38.60
2019-04-13T00:40:10.377Z,38.50
2019-04-13T00:42:38.020Z,38.70
2019-04-13T00:45:05.725Z,38.70
2019-04-13T00:47:34.404Z,38.70
2019-04-13T00:50:02.206Z,38.40
2019-04-13T00:52:29.869Z,38.40
2019-04-13T00:54:57.513Z,38.20
2019-04-13T00:57:25.158Z,38.30
2019-04-13T00:59:52.813Z,38.20
2019-04-13T01:02:20.466Z,38.20
2019-04-13T01:04:53.725Z,38.50
2019-04-13T01:07:17.729Z,38.50
2019-04-13T01:09:45.353Z,38.60
2019-04-13T01:12:12.974Z,38.50
2019-04-13T01:14:40.649Z,38.40
2019-04-13T01:17:08.304Z,39.00
2019-04-13T01:19:36.142Z,39.10
2019-04-13T01:22:03.762Z,38.50
2019-04-13T01:24:31.421Z,38.90
2019-04-13T01:26:59.081Z,38.70
2019-04-13T01:29:27.768Z,39.00
2019-04-13T01:31:55.498Z,39.30
2019-04-13T01:34:23.129Z,39.20
2019-04-13T01:36:50.771Z,39.00
2019-04-13T01:39:18.445Z,39.40
2019-04-13T01:41:46.096Z,39.30
2019-04-13T01:44:13.722Z,39.30
2019-04-13T01:46:41.404Z,38.90
2019-04-13T01:49:09.023Z,39.10
2019-04-13T01:51:36.681Z,39.50
2019-04-13T01:54:04.385Z,39.50
2019-04-13T01:56:32.060Z,38.80
2019-04-13T01:58:59.690Z,38.40
2019-04-13T02:01:58.480Z,38.40
2019-04-13T02:04:57.585Z,39.00
2019-04-13T02:07:39.197Z,39.60
2019-04-13T02:10:28.356Z,39.00
2019-04-13T02:12:56.382Z,39.10
2019-04-13T02:15:24.011Z,38.80
2019-04-13T02:17:51.649Z,38.60
2019-04-13T02:20:19.319Z,38.40
2019-04-13T02:22:46.965Z,38.70
2019-04-13T02:25:14.666Z,38.40
2019-04-13T02:27:42.297Z,38.30
2019-04-13T02:30:11.134Z,39.00
2019-04-13T02:32:39.951Z,38.80
2019-04-13T02:35:07.838Z,39.20
2019-04-13T02:37:35.497Z,38.90
2019-04-13T02:40:03.660Z,39.20
2019-04-13T02:42:31.304Z,38.40
2019-04-13T02:44:58.978Z,38.40
2019-04-13T02:47:26.708Z,38.30
2019-04-13T02:49:54.426Z,38.50
2019-04-13T02:52:22.033Z,38.60
2019-04-13T02:54:49.673Z,38.60
2019-04-13T02:57:17.328Z,38.70
2019-04-13T02:59:44.990Z,38.50
2019-04-13T03:02:12.777Z,38.80
2019-04-13T03:04:40.442Z,38.70
2019-04-13T03:07:09.161Z,39.10
2019-04-13T03:09:36.813Z,39.50
2019-04-13T03:12:04.429Z,39.10
2019-04-13T03:14:32.117Z,39.10
2019-04-13T03:17:16.445Z,39.30
2019-04-13T03:19:50.504Z,39.30
2019-04-13T03:22:18.158Z,39.60
2019-04-13T03:24:45.791Z,39.00
2019-04-13T03:27:14.451Z,39.20
2019-04-13T03:29:42.071Z,39.60
2019-04-13T03:32:09.782Z,39.20
2019-04-13T03:34:37.380Z,39.10
2019-04-13T03:37:05.095Z,38.00
2019-04-13T03:39:32.711Z,38.00
2019-04-13T03:42:00.397Z,38.00
2019-04-13T03:44:28.006Z,38.00
2019-04-13T03:46:55.649Z,37.90
2019-04-13T03:49:23.309Z,37.60
2019-04-13T03:51:50.945Z,38.00
2019-04-13T03:54:18.570Z,38.50
2019-04-13T03:56:46.256Z,38.70
2019-04-13T03:59:13.897Z,39.80
2019-04-13T04:01:41.580Z,39.30
2019-04-13T04:04:09.293Z,39.20
2019-04-13T04:06:36.905Z,39.30
2019-04-13T04:09:05.709Z,39.30
2019-04-13T04:11:33.453Z,39.50
2019-04-13T04:14:01.109Z,40.00
2019-04-13T04:16:28.721Z,40.10
2019-04-13T04:18:56.425Z,40.90
2019-04-13T04:21:24.089Z,40.50
2019-04-13T04:23:51.848Z,40.40
2019-04-13T04:26:19.533Z,40.40
2019-04-13T04:28:47.190Z,40.80
2019-04-13T04:31:14.853Z,40.80
2019-04-13T04:33:42.522Z,40.80
2019-04-13T04:36:10.181Z,40.60
2019-04-13T04:38:37.812Z,40.10
2019-04-13T04:41:05.447Z,40.20
2019-04-13T04:43:33.092Z,39.90
2019-04-13T04:46:00.781Z,40.20
2019-04-13T04:48:28.462Z,40.40
2019-04-13T04:50:56.103Z,39.90
2019-04-13T04:53:23.805Z,40.00
2019-04-13T04:55:51.427Z,40.20
2019-04-13T04:58:19.104Z,40.20
2019-04-13T05:00:46.902Z,40.90
2019-04-13T05:03:15.632Z,41.20
2019-04-13T05:05:43.428Z,40.90
2019-04-13T05:08:14.511Z,41.40
2019-04-13T05:10:40.696Z,41.30
2019-04-13T05:13:08.344Z,41.70
2019-04-13T05:15:36.008Z,41.50
2019-04-13T05:18:03.686Z,41.70
2019-04-13T05:20:31.350Z,41.10
2019-04-13T05:22:59.004Z,41.30
2019-04-13T05:25:26.697Z,41.50
2019-04-13T05:27:54.342Z,41.80
2019-04-13T05:30:21.986Z,42.10
2019-04-13T05:32:49.700Z,41.90
2019-04-13T05:35:17.367Z,41.50
2019-04-13T05:37:46.088Z,41.80
2019-04-13T05:40:13.777Z,41.50
2019-04-13T05:42:41.422Z,42.00
2019-04-13T05:45:09.300Z,42.00
2019-04-13T05:47:37.001Z,41.20
2019-04-13T05:50:05.575Z,41.10
2019-04-13T05:52:34.274Z,41.20
2019-04-13T05:55:01.923Z,41.20
2019-04-13T05:57:31.655Z,41.50
2019-04-13T05:59:59.175Z,41.10
2019-04-13T06:02:26.852Z,41.40
2019-04-13T06:04:54.545Z,41.60
2019-04-13T06:07:22.193Z,42.00
2019-04-13T06:09:49.885Z,41.70
2019-04-13T06:12:17.652Z,41.80
2019-04-13T06:14:45.309Z,41.90
2019-04-13T06:17:12.967Z,41.10
2019-04-13T06:19:40.614Z,42.10
2019-04-13T06:22:08.437Z,40.90
2019-04-13T06:24:36.066Z,41.60
2019-04-13T06:27:03.793Z,41.30
2019-04-13T06:29:31.452Z,41.70
2019-04-13T06:32:17.777Z,41.30
2019-04-13T06:35:04.950Z,41.80
2019-04-13T06:37:32.740Z,41.60
2019-04-13T06:40:00.394Z,41.20
2019-04-13T06:42:28.041Z,40.70
2019-04-13T06:44:55.712Z,41.10
2019-04-13T06:47:23.389Z,41.70
2019-04-13T06:49:51.226Z,41.50
2019-04-13T06:52:22.110Z,40.10
2019-04-13T06:54:50.353Z,40.80
2019-04-13T06:57:18.117Z,40.90
2019-04-13T06:59:45.769Z,40.00
2019-04-13T07:02:13.453Z,40.00
2019-04-13T07:04:41.132Z,40.20
2019-04-13T07:07:24.128Z,40.80
2019-04-13T07:09:51.808Z,40.80
2019-04-13T07:12:31.633Z,41.50
2019-04-13T07:14:59.100Z,40.70
2019-04-13T07:17:29.317Z,40.60
2019-04-13T07:19:57.019Z,40.60
2019-04-13T07:22:24.675Z,40.20
2019-04-13T07:24:52.362Z,40.10
2019-04-13T07:27:19.996Z,40.00
2019-04-13T07:29:47.677Z,39.10
2019-04-13T07:32:15.421Z,39.70
2019-04-13T07:34:43.104Z,39.20
2019-04-13T07:37:12.441Z,39.20
2019-04-13T07:39:40.362Z,40.10
2019-04-13T07:42:08.170Z,39.40
2019-04-13T07:44:55.395Z,39.30
2019-04-13T07:47:48.621Z,39.40
2019-04-13T07:50:34.262Z,38.70
2019-04-13T07:53:05.914Z,39.00
2019-04-13T07:55:36.302Z,39.40
2019-04-13T07:58:03.257Z,39.50
2019-04-13T08:00:31.017Z,39.30
2019-04-13T08:02:58.689Z,38.70
2019-04-13T08:05:26.474Z,38.20
2019-04-13T08:07:55.484Z,38.60
2019-04-13T08:10:23.245Z,39.10
2019-04-13T08:12:50.908Z,39.10
2019-04-13T08:15:18.550Z,39.50
2019-04-13T08:17:47.225Z,39.50
2019-04-13T08:20:29.440Z,39.50
2019-04-13T08:22:55.741Z,39.30
2019-04-13T08:25:24.518Z,39.40
2019-04-13T08:27:52.280Z,39.60
2019-04-13T08:30:20.737Z,39.50
2019-04-13T08:32:48.384Z,39.60
2019-04-13T08:35:16.100Z,40.30
2019-04-13T08:37:52.572Z,39.00
2019-04-13T08:40:13.418Z,39.40
2019-04-13T08:42:41.088Z,39.00
2019-04-13T08:45:12.352Z,38.90
2019-04-13T08:47:40.332Z,38.80
2019-04-13T08:50:08.002Z,39.70
2019-04-13T08:52:35.797Z,39.60
2019-04-13T08:55:04.339Z,40.10
2019-04-13T08:57:32.117Z,40.40
2019-04-13T08:59:59.751Z,40.20
2019-04-13T09:02:27.378Z,40.20
2019-04-13T09:04:55.057Z,40.80
2019-04-13T09:07:22.726Z,40.60
2019-04-13T09:09:50.870Z,41.10
2019-04-13T09:12:18.995Z,40.10
2019-04-13T09:14:46.864Z,40.50
2019-04-13T09:17:18.024Z,41.10
2019-04-13T09:19:49.364Z,41.20
2019-04-13T09:22:18.824Z,41.40
2019-04-13T09:24:48.667Z,41.80
2019-04-13T09:27:16.172Z,41.20
2019-04-13T09:29:44.508Z,40.30
2019-04-13T09:32:13.661Z,41.30
2019-04-13T09:34:41.305Z,40.50
2019-04-13T09:37:08.922Z,41.00
2019-04-13T09:39:36.769Z,40.70
2019-04-13T09:42:04.436Z,41.10
2019-04-13T09:44:32.411Z,41.30
2019-04-13T09:47:02.737Z,41.10
2019-04-13T09:49:30.396Z,40.90
2019-04-13T09:52:00.186Z,41.20
2019-04-13T09:54:27.715Z,42.20
2019-04-13T09:56:55.460Z,41.60
2019-04-13T09:59:23.257Z,41.80
2019-04-13T10:01:50.982Z,41.20
2019-04-13T10:04:18.647Z,42.10
2019-04-13T10:06:46.302Z,42.10
2019-04-13T10:09:13.964Z,41.40
2019-04-13T10:11:53.332Z,41.80
2019-04-13T10:14:43.488Z,42.10
2019-04-13T10:17:18.082Z,42.40
2019-04-13T10:19:45.733Z,42.90
2019-04-13T10:22:13.438Z,44.40
2019-04-13T10:24:41.187Z,42.80
2019-04-13T10:27:08.806Z,43.30
2019-04-13T10:29:36.981Z,43.50
2019-04-13T10:32:04.945Z,43.70
2019-04-13T10:34:32.593Z,41.30
2019-04-13T10:37:00.222Z,43.70
2019-04-13T10:39:27.910Z,43.80
2019-04-13T10:41:55.822Z,43.60
2019-04-13T10:44:26.990Z,44.80
2019-04-13T10:47:12.627Z,44.20
2019-04-13T10:49:46.060Z,44.30
2019-04-13T10:52:20.562Z,43.50
2019-04-13T10:54:47.233Z,43.30
2019-04-13T10:57:14.871Z,43.60
2019-04-13T10:59:42.510Z,42.80
2019-04-13T11:02:21.401Z,41.40
2019-04-13T11:04:41.170Z,43.70
2019-04-13T11:07:09.349Z,43.90
2019-04-13T11:09:37.040Z,44.60
2019-04-13T11:12:04.805Z,45.30
2019-04-13T11:14:32.548Z,45.10
2019-04-13T11:17:00.314Z,45.20
2019-04-13T11:19:27.997Z,43.70
2019-04-13T11:21:55.631Z,45.40
2019-04-13T11:24:23.290Z,44.80
2019-04-13T11:26:51.659Z,44.20
2019-04-13T11:29:19.526Z,43.60
2019-04-13T11:31:47.256Z,43.90
2019-04-13T11:34:15.118Z,44.30
2019-04-13T11:36:42.789Z,44.30
2019-04-13T11:39:10.449Z,43.70
2019-04-13T11:41:55.865Z,44.30
2019-04-13T11:44:43.073Z,44.10
2019-04-13T11:47:33.050Z,44.30
2019-04-13T11:50:01.145Z,44.10
2019-04-13T11:52:29.913Z,44.10
2019-04-13T11:55:00.089Z,44.60
2019-04-13T11:57:27.120Z,44.90
2019-04-13T11:59:54.846Z,44.80
2019-04-13T12:02:37.906Z,44.80
2019-04-13T12:05:23.812Z,44.80
2019-04-13T12:08:11.044Z,45.80
2019-04-13T12:11:07.247Z,47.30
2019-04-13T12:13:53.436Z,48.00
2019-04-13T12:16:39.280Z,47.20
2019-04-13T12:19:20.456Z,46.20
2019-04-13T12:22:07.833Z,46.50
2019-04-13T12:24:36.510Z,46.60
2019-04-13T12:27:04.252Z,46.20
2019-04-13T12:29:31.986Z,46.40
2019-04-13T12:32:00.034Z,46.10
2019-04-13T12:34:27.734Z,46.50
2019-04-13T12:36:55.462Z,44.90
2019-04-13T12:39:23.434Z,46.90
2019-04-13T12:41:57.113Z,45.50
2019-04-13T12:44:36.620Z,45.50
2019-04-13T12:46:57.819Z,46.10
2019-04-13T12:49:25.669Z,45.40
2019-04-13T12:51:53.515Z,45.00
2019-04-13T12:54:21.339Z,44.30
2019-04-13T12:56:49.370Z,43.20
2019-04-13T12:59:17.185Z,45.60
2019-04-13T13:01:59.440Z,44.80
2019-04-13T13:04:31.097Z,43.20
2019-04-13T13:06:58.766Z,42.70
2019-04-13T13:09:26.476Z,44.30
2019-04-13T13:11:54.122Z,42.90
2019-04-13T13:14:21.813Z,44.50
2019-04-13T13:16:49.551Z,43.80
2019-04-13T13:19:17.223Z,43.80
2019-04-13T13:21:45.021Z,45.50
2019-04-13T13:24:12.788Z,46.30
2019-04-13T13:26:48.043Z,44.70
2019-04-13T13:29:11.181Z,45.60
2019-04-13T13:31:38.949Z,45.50
2019-04-13T13:34:06.617Z,45.40
2019-04-13T13:36:34.442Z,46.00
2019-04-13T13:39:02.243Z,45.40
2019-04-13T13:41:31.930Z,46.50
2019-04-13T13:43:59.803Z,45.80
2019-04-13T13:46:27.552Z,46.50
2019-04-13T13:48:55.319Z,45.60
2019-04-13T13:51:26.545Z,44.10
2019-04-13T13:53:52.596Z,44.80
2019-04-13T13:56:20.321Z,43.00
2019-04-13T13:58:52.736Z,43.50
2019-04-13T14:01:43.468Z,45.50
2019-04-13T14:04:11.710Z,46.00
2019-04-13T14:06:39.392Z,46.10
2019-04-13T14:09:09.552Z,45.70
2019-04-13T14:11:37.611Z,46.20
2019-04-13T14:14:05.484Z,46.70
2019-04-13T14:16:33.209Z,46.60
2019-04-13T14:19:00.938Z,47.60
2019-04-13T14:21:28.641Z,46.80
2019-04-13T14:23:56.339Z,45.60
2019-04-13T14:26:25.051Z,45.80
2019-04-13T14:28:52.749Z,47.20
2019-04-13T14:31:20.626Z,48.10
2019-04-13T14:33:48.288Z,47.70
2019-04-13T14:36:16.013Z,51.10
2019-04-13T14:38:43.688Z,48.80
2019-04-13T14:41:11.386Z,47.50
2019-04-13T14:43:39.975Z,47.20
2019-04-13T14:46:08.842Z,49.20
2019-04-13T14:48:36.760Z,48.20
2019-04-13T14:51:04.666Z,48.10
2019-04-13T14:53:32.434Z,47.40
2019-04-13T14:56:04.057Z,47.60
2019-04-13T14:58:30.010Z,49.50
2019-04-13T15:00:57.682Z,48.60
2019-04-13T15:03:25.409Z,49.50
2019-04-13T15:05:53.109Z,50.20
2019-04-13T15:08:20.867Z,51.30
2019-04-13T15:10:50.991Z,50.50
2019-04-13T15:13:18.709Z,50.80
2019-04-13T15:15:48.044Z,49.90
2019-04-13T15:18:26.056Z,50.30
2019-04-13T15:20:57.983Z,50.50
2019-04-13T15:23:23.566Z,50.10
2019-04-13T15:25:51.299Z,51.10
2019-04-13T15:28:19.304Z,50.90
2019-04-13T15:30:49.726Z,53.30
2019-04-13T15:33:18.365Z,51.50
2019-04-13T15:35:51.269Z,51.40
2019-04-13T15:38:18.115Z,51.20
2019-04-13T15:40:48.564Z,51.20
2019-04-13T15:43:22.927Z,52.40
2019-04-13T15:45:47.928Z,53.20
2019-04-13T15:48:14.502Z,53.80
2019-04-13T15:50:42.553Z,52.80
2019-04-13T15:53:10.272Z,53.60
2019-04-13T15:55:37.940Z,53.20
2019-04-13T15:58:05.628Z,53.80
2019-04-13T16:00:33.857Z,53.50
2019-04-13T16:03:02.288Z,54.80
2019-04-13T16:05:31.169Z,53.80
2019-04-13T16:07:59.728Z,54.00
2019-04-13T16:10:42.402Z,54.20
2019-04-13T16:13:13.051Z,53.90
2019-04-13T16:15:40.816Z,53.10
2019-04-13T16:18:08.845Z,53.40
2019-04-13T16:20:38.073Z,53.90
2019-04-13T16:23:06.766Z,53.10
2019-04-13T16:25:35.880Z,53.60
2019-04-13T16:28:18.042Z,54.00
2019-04-13T16:31:24.712Z,52.40
2019-04-13T16:34:18.056Z,52.00
2019-04-13T16:36:51.936Z,51.40
2019-04-13T16:39:23.216Z,51.10
2019-04-13T16:41:58.405Z,51.60
2019-04-13T16:44:30.965Z,51.00
2019-04-13T16:47:16.527Z,51.80
2019-04-13T16:49:50.848Z,51.30
2019-04-13T16:52:38.736Z,52.20
2019-04-13T16:55:16.564Z,52.40
2019-04-13T16:58:09.931Z,52.60
2019-04-13T17:01:03.178Z,52.00
2019-04-13T17:03:50.057Z,51.50
2019-04-13T17:06:18.942Z,52.00
2019-04-13T17:08:46.983Z,51.30
2019-04-13T17:11:15.047Z,51.90
2019-04-13T17:13:43.343Z,52.60
2019-04-13T17:16:11.349Z,51.90
2019-04-13T17:18:50.821Z,52.20
2019-04-13T17:21:29.330Z,51.30
2019-04-13T17:24:09.448Z,52.80
2019-04-13T17:26:57.126Z,53.10
2019-04-13T17:29:54.560Z,53.40
2019-04-13T17:32:29.281Z,52.40
2019-04-13T17:35:01.410Z,52.30
2019-04-13T17:37:29.811Z,53.50
2019-04-13T17:39:57.668Z,54.40
2019-04-13T17:42:45.323Z,52.90
2019-04-13T17:45:37.622Z,53.00
2019-04-13T17:48:27.680Z,53.30
2019-04-13T17:51:24.935Z,55.20
2019-04-13T17:54:10.373Z,53.80
2019-04-13T17:56:38.426Z,53.30
2019-04-13T17:59:25.424Z,53.90
2019-04-13T18:02:17.589Z,52.90
2019-04-13T18:05:00.150Z,53.40
2019-04-13T18:07:48.700Z,53.70
2019-04-13T18:10:36.509Z,53.70
2019-04-13T18:13:13.518Z,53.70
2019-04-13T18:15:59.600Z,53.70
2019-04-13T18:18:33.874Z,52.70
2019-04-13T18:21:01.739Z,53.20
2019-04-13T18:23:29.602Z,52.80
2019-04-13T18:25:58.856Z,53.30
2019-04-13T18:28:27.293Z,53.60
2019-04-13T18:30:55.779Z,53.80
2019-04-13T18:33:23.699Z,53.50
2019-04-13T18:35:52.589Z,53.30
2019-04-13T18:38:21.145Z,53.50
2019-04-13T18:40:49.464Z,53.60
2019-04-13T18:43:22.341Z,52.80
2019-04-13T18:45:47.332Z,53.20
2019-04-13T18:48:16.304Z,53.60
2019-04-13T18:50:45.386Z,54.00
2019-04-13T18:53:14.882Z,54.30
2019-04-13T18:55:43.113Z,54.30
2019-04-13T18:58:12.517Z,54.40
2019-04-13T19:00:40.438Z,55.10
2019-04-13T19:03:09.279Z,55.30
2019-04-13T19:05:37.584Z,54.70
2019-04-13T19:08:05.285Z,54.60
2019-04-13T19:10:33.048Z,54.20
2019-04-13T19:13:04.523Z,54.50
2019-04-13T19:15:30.501Z,54.20
2019-04-13T19:17:58.187Z,54.60
2019-04-13T19:20:25.900Z,54.20
2019-04-13T19:22:53.679Z,54.90
2019-04-13T19:25:21.365Z,54.40
2019-04-13T19:27:49.049Z,54.00
2019-04-13T19:30:16.757Z,53.80
2019-04-13T19:32:44.665Z,53.60
2019-04-13T19:35:12.341Z,55.10
2019-04-13T19:37:40.133Z,54.20
2019-04-13T19:40:07.854Z,54.80
2019-04-13T19:42:35.631Z,54.30
2019-04-13T19:45:04.010Z,54.00
2019-04-13T19:47:31.800Z,53.80
2019-04-13T19:49:59.507Z,54.70
2019-04-13T19:52:33.644Z,54.60
2019-04-13T19:55:01.548Z,54.60
2019-04-13T19:57:30.009Z,54.80
2019-04-13T19:59:57.728Z,55.50
2019-04-13T20:02:26.686Z,55.90
2019-04-13T20:04:54.342Z,55.80
2019-04-13T20:07:22.003Z,55.70
2019-04-13T20:09:49.775Z,55.70
2019-04-13T20:12:17.505Z,55.80
2019-04-13T20:14:45.785Z,55.80
2019-04-13T20:17:14.627Z,55.80
2019-04-13T20:19:42.392Z,56.40
2019-04-13T20:22:10.198Z,55.90
2019-04-13T20:24:37.983Z,55.80
2019-04-13T20:27:06.723Z,56.50
2019-04-13T20:29:34.613Z,56.20
2019-04-13T20:32:03.400Z,55.90
2019-04-13T20:34:32.219Z,56.80
2019-04-13T20:36:59.868Z,55.90
2019-04-13T20:39:28.729Z,55.90
2019-04-13T20:42:03.405Z,56.90
2019-04-13T20:44:26.036Z,56.90
2019-04-13T20:46:53.832Z,57.40
2019-04-13T20:49:21.690Z,58.90
2019-04-13T20:51:49.585Z,58.50
2019-04-13T20:54:17.365Z,58.60
2019-04-13T20:56:45.079Z,59.10
2019-04-13T20:59:12.825Z,59.60
2019-04-13T21:01:40.871Z,59.00
2019-04-13T21:04:08.670Z,59.30
2019-04-13T21:06:36.806Z,59.00
2019-04-13T21:09:07.503Z,59.60
2019-04-13T21:11:35.706Z,59.70
2019-04-13T21:14:13.866Z,60.00
2019-04-13T21:16:33.038Z,60.60
2019-04-13T21:19:00.850Z,60.10
2019-04-13T21:21:28.504Z,60.70
2019-04-13T21:23:56.165Z,60.10
2019-04-13T21:26:25.470Z,58.80
2019-04-13T21:28:53.747Z,59.60
2019-04-13T21:31:21.838Z,58.80
2019-04-13T21:33:49.680Z,58.90
2019-04-13T21:36:17.444Z,57.10
2019-04-13T21:38:45.260Z,55.90
2019-04-13T21:41:12.962Z,57.00
2019-04-13T21:43:41.153Z,56.50
2019-04-13T21:46:08.994Z,56.80
2019-04-13T21:48:37.366Z,56.40
2019-04-13T21:51:24.780Z,58.30
2019-04-13T21:54:00.325Z,57.70
2019-04-13T21:56:29.823Z,57.90
2019-04-13T21:58:57.711Z,58.80
2019-04-13T22:01:56.282Z,58.30
2019-04-13T22:04:24.123Z,59.50
2019-04-13T22:06:51.838Z,58.20
2019-04-13T22:09:19.953Z,57.20
2019-04-13T22:11:47.749Z,56.80
2019-04-13T22:14:28.339Z,57.60
2019-04-13T22:16:45.720Z,56.60
2019-04-13T22:19:13.653Z,56.20
2019-04-13T22:21:41.540Z,56.10
2019-04-13T22:24:09.347Z,56.80
2019-04-13T22:26:37.103Z,57.80
2019-04-13T22:29:22.224Z,57.20
2019-04-13T22:32:09.926Z,57.10
2019-04-13T22:35:00.373Z,56.90
2019-04-13T22:37:28.113Z,56.50
2019-04-13T22:39:55.782Z,57.30
2019-04-13T22:42:23.476Z,57.70
2019-04-13T22:44:58.178Z,56.20
2019-04-13T22:47:21.651Z,56.10
2019-04-13T22:49:58.757Z,57.20
2019-04-13T22:52:49.558Z,57.50
2019-04-13T22:55:33.156Z,57.50
2019-04-13T22:58:00.764Z,57.10
2019-04-13T23:00:36.564Z,57.20
2019-04-13T23:03:13.605Z,57.50
2019-04-13T23:05:43.560Z,58.40
2019-04-13T23:08:11.806Z,58.60
2019-04-13T23:10:39.906Z,58.50
2019-04-13T23:13:08.177Z,58.10
2019-04-13T23:15:38.939Z,58.30
2019-04-13T23:18:05.905Z,59.10
2019-04-13T23:20:34.364Z,58.00
2019-04-13T23:23:02.801Z,57.10
2019-04-13T23:25:31.181Z,57.80
2019-04-13T23:27:59.182Z,57.90
2019-04-13T23:30:27.069Z,57.00
2019-04-13T23:32:55.437Z,57.30
2019-04-13T23:35:23.514Z,56.70
2019-04-13T23:37:52.003Z,57.50
2019-04-13T23:40:20.416Z,56.70
2019-04-13T23:42:48.480Z,56.70
2019-04-13T23:45:25.956Z,57.70
2019-04-13T23:47:49.886Z,57.80
2019-04-13T23:50:17.787Z,58.20
2019-04-13T23:52:45.858Z,58.20
2019-04-13T23:55:16.133Z,58.80
2019-04-13T23:58:01.809Z,58.30
